sensor_id;sensor_type;location;lat;lon;timestamp;P1;durP1;ratioP1;P2;durP2;ratioP2
38779;SDS011;29273;49.962;9.768;2024-02-16T00:00:16;6.70;;;4.10;;
38779;SDS011;29273;49.962;9.768;2024-02-16T00:02:43;5.93;;;4.05;;
38779;SDS011;29273;49.962;9.768;2024-02-16T00:05:09;6.30;;;3.90;;
38779;SDS011;29273;49.962;9.768;2024-02-16T00:07:37;6.75;;;4.60;;
38779;SDS011;29273;49.962;9.768;2024-02-16T00:10:06;6.60;;;4.45;;
38779;SDS011;29273;49.962;9.768;2024-02-16T00:12:32;6.32;;;3.88;;
38779;SDS011;29273;49.962;9.768;2024-02-16T00:14:59;5.78;;;4.32;;
38779;SDS011;29273;49.962;9.768;2024-02-16T00:17:25;6.28;;;3.90;;
38779;SDS011;29273;49.962;9.768;2024-02-16T00:19:57;5.30;;;3.53;;
38779;SDS011;29273;49.962;9.768;2024-02-16T00:22:22;5.03;;;3.47;;
38779;SDS011;29273;49.962;9.768;2024-02-16T00:24:48;5.28;;;3.65;;
38779;SDS011;29273;49.962;9.768;2024-02-16T00:27:14;5.22;;;3.85;;
38779;SDS011;29273;49.962;9.768;2024-02-16T00:29:41;5.18;;;3.83;;
38779;SDS011;29273;49.962;9.768;2024-02-16T00:32:07;5.45;;;3.50;;
38779;SDS011;29273;49.962;9.768;2024-02-16T00:34:33;4.45;;;3.05;;
38779;SDS011;29273;49.962;9.768;2024-02-16T00:37:02;4.57;;;3.13;;
38779;SDS011;29273;49.962;9.768;2024-02-16T00:39:37;4.13;;;3.03;;
38779;SDS011;29273;49.962;9.768;2024-02-16T00:42:06;4.20;;;2.78;;
38779;SDS011;29273;49.962;9.768;2024-02-16T00:44:31;3.58;;;3.08;;
38779;SDS011;29273;49.962;9.768;2024-02-16T00:46:57;4.07;;;3.10;;
38779;SDS011;29273;49.962;9.768;2024-02-16T00:49:23;6.53;;;3.08;;
38779;SDS011;29273;49.962;9.768;2024-02-16T00:51:49;3.67;;;3.03;;
38779;SDS011;29273;49.962;9.768;2024-02-16T00:54:16;4.05;;;2.88;;
38779;SDS011;29273;49.962;9.768;2024-02-16T00:56:42;2.97;;;2.63;;
38779;SDS011;29273;49.962;9.768;2024-02-16T00:59:07;4.00;;;2.78;;
38779;SDS011;29273;49.962;9.768;2024-02-16T01:01:34;3.42;;;2.63;;
38779;SDS011;29273;49.962;9.768;2024-02-16T01:04:01;3.80;;;2.95;;
38779;SDS011;29273;49.962;9.768;2024-02-16T01:06:27;3.58;;;2.63;;
38779;SDS011;29273;49.962;9.768;2024-02-16T01:08:53;3.20;;;2.72;;
38779;SDS011;29273;49.962;9.768;2024-02-16T01:11:19;4.35;;;3.22;;
38779;SDS011;29273;49.962;9.768;2024-02-16T01:13:47;4.15;;;3.10;;
38779;SDS011;29273;49.962;9.768;2024-02-16T01:16:13;3.58;;;2.78;;
38779;SDS011;29273;49.962;9.768;2024-02-16T01:18:39;3.08;;;2.50;;
38779;SDS011;29273;49.962;9.768;2024-02-16T01:21:05;3.85;;;2.90;;
38779;SDS011;29273;49.962;9.768;2024-02-16T01:23:30;3.58;;;2.70;;
38779;SDS011;29273;49.962;9.768;2024-02-16T01:25:56;3.05;;;2.53;;
38779;SDS011;29273;49.962;9.768;2024-02-16T01:28:21;2.60;;;2.40;;
38779;SDS011;29273;49.962;9.768;2024-02-16T01:30:48;3.45;;;2.58;;
38779;SDS011;29273;49.962;9.768;2024-02-16T01:33:13;3.15;;;2.05;;
38779;SDS011;29273;49.962;9.768;2024-02-16T01:35:39;3.10;;;2.47;;
38779;SDS011;29273;49.962;9.768;2024-02-16T01:38:05;3.05;;;2.30;;
38779;SDS011;29273;49.962;9.768;2024-02-16T01:40:30;2.85;;;2.40;;
38779;SDS011;29273;49.962;9.768;2024-02-16T01:42:57;4.68;;;2.47;;
38779;SDS011;29273;49.962;9.768;2024-02-16T01:45:22;3.63;;;2.22;;
38779;SDS011;29273;49.962;9.768;2024-02-16T01:47:49;2.72;;;2.28;;
38779;SDS011;29273;49.962;9.768;2024-02-16T01:50:16;2.47;;;2.00;;
38779;SDS011;29273;49.962;9.768;2024-02-16T01:52:46;3.13;;;2.10;;
38779;SDS011;29273;49.962;9.768;2024-02-16T01:55:13;4.10;;;2.42;;
38779;SDS011;29273;49.962;9.768;2024-02-16T01:57:39;3.05;;;2.58;;
38779;SDS011;29273;49.962;9.768;2024-02-16T02:00:05;3.38;;;2.28;;
38779;SDS011;29273;49.962;9.768;2024-02-16T02:02:36;3.30;;;2.35;;
38779;SDS011;29273;49.962;9.768;2024-02-16T02:05:02;2.88;;;2.22;;
38779;SDS011;29273;49.962;9.768;2024-02-16T02:07:29;2.92;;;2.25;;
38779;SDS011;29273;49.962;9.768;2024-02-16T02:09:55;2.97;;;2.30;;
38779;SDS011;29273;49.962;9.768;2024-02-16T02:12:21;2.70;;;2.20;;
38779;SDS011;29273;49.962;9.768;2024-02-16T02:14:48;3.47;;;1.95;;
38779;SDS011;29273;49.962;9.768;2024-02-16T02:17:14;3.05;;;2.13;;
38779;SDS011;29273;49.962;9.768;2024-02-16T02:19:40;3.20;;;2.47;;
38779;SDS011;29273;49.962;9.768;2024-02-16T02:22:11;4.15;;;2.10;;
38779;SDS011;29273;49.962;9.768;2024-02-16T02:24:39;2.15;;;1.92;;
38779;SDS011;29273;49.962;9.768;2024-02-16T02:27:04;2.92;;;2.13;;
38779;SDS011;29273;49.962;9.768;2024-02-16T02:29:30;2.65;;;2.22;;
38779;SDS011;29273;49.962;9.768;2024-02-16T02:31:55;3.38;;;2.50;;
38779;SDS011;29273;49.962;9.768;2024-02-16T02:34:21;3.00;;;2.40;;
38779;SDS011;29273;49.962;9.768;2024-02-16T02:36:46;3.03;;;2.50;;
38779;SDS011;29273;49.962;9.768;2024-02-16T02:39:12;3.22;;;2.50;;
38779;SDS011;29273;49.962;9.768;2024-02-16T02:41:38;3.22;;;2.60;;
38779;SDS011;29273;49.962;9.768;2024-02-16T02:44:04;3.00;;;2.38;;
38779;SDS011;29273;49.962;9.768;2024-02-16T02:46:30;3.22;;;2.50;;
38779;SDS011;29273;49.962;9.768;2024-02-16T02:48:55;2.90;;;2.30;;
38779;SDS011;29273;49.962;9.768;2024-02-16T02:51:21;3.22;;;2.10;;
38779;SDS011;29273;49.962;9.768;2024-02-16T02:53:46;3.08;;;2.50;;
38779;SDS011;29273;49.962;9.768;2024-02-16T02:56:12;2.60;;;2.30;;
38779;SDS011;29273;49.962;9.768;2024-02-16T02:58:40;2.45;;;2.08;;
38779;SDS011;29273;49.962;9.768;2024-02-16T03:01:06;3.03;;;2.25;;
38779;SDS011;29273;49.962;9.768;2024-02-16T03:03:33;3.22;;;2.00;;
38779;SDS011;29273;49.962;9.768;2024-02-16T03:05:59;2.85;;;2.40;;
38779;SDS011;29273;49.962;9.768;2024-02-16T03:08:24;3.80;;;2.20;;
38779;SDS011;29273;49.962;9.768;2024-02-16T03:10:50;2.25;;;1.92;;
38779;SDS011;29273;49.962;9.768;2024-02-16T03:13:16;3.30;;;2.03;;
38779;SDS011;29273;49.962;9.768;2024-02-16T03:15:44;2.60;;;2.30;;
38779;SDS011;29273;49.962;9.768;2024-02-16T03:18:13;3.53;;;2.33;;
38779;SDS011;29273;49.962;9.768;2024-02-16T03:20:39;3.70;;;2.53;;
38779;SDS011;29273;49.962;9.768;2024-02-16T03:23:04;3.70;;;2.22;;
38779;SDS011;29273;49.962;9.768;2024-02-16T03:25:30;3.38;;;2.17;;
38779;SDS011;29273;49.962;9.768;2024-02-16T03:27:55;3.10;;;2.30;;
38779;SDS011;29273;49.962;9.768;2024-02-16T03:30:21;3.38;;;2.10;;
38779;SDS011;29273;49.962;9.768;2024-02-16T03:32:47;3.17;;;2.35;;
38779;SDS011;29273;49.962;9.768;2024-02-16T03:35:14;2.60;;;2.13;;
38779;SDS011;29273;49.962;9.768;2024-02-16T03:37:40;2.85;;;2.10;;
38779;SDS011;29273;49.962;9.768;2024-02-16T03:40:06;2.50;;;1.80;;
38779;SDS011;29273;49.962;9.768;2024-02-16T03:42:33;2.70;;;2.03;;
38779;SDS011;29273;49.962;9.768;2024-02-16T03:44:58;2.92;;;2.25;;
38779;SDS011;29273;49.962;9.768;2024-02-16T03:47:24;2.10;;;1.90;;
38779;SDS011;29273;49.962;9.768;2024-02-16T03:49:49;3.22;;;2.33;;
38779;SDS011;29273;49.962;9.768;2024-02-16T03:52:14;2.05;;;1.83;;
38779;SDS011;29273;49.962;9.768;2024-02-16T03:54:40;3.55;;;2.10;;
38779;SDS011;29273;49.962;9.768;2024-02-16T03:57:07;2.88;;;2.13;;
38779;SDS011;29273;49.962;9.768;2024-02-16T03:59:34;2.83;;;2.03;;
38779;SDS011;29273;49.962;9.768;2024-02-16T04:02:00;2.58;;;2.05;;
38779;SDS011;29273;49.962;9.768;2024-02-16T04:04:25;2.88;;;2.55;;
38779;SDS011;29273;49.962;9.768;2024-02-16T04:06:52;2.88;;;2.22;;
38779;SDS011;29273;49.962;9.768;2024-02-16T04:09:17;3.65;;;2.38;;
38779;SDS011;29273;49.962;9.768;2024-02-16T04:11:43;4.15;;;2.80;;
38779;SDS011;29273;49.962;9.768;2024-02-16T04:14:10;2.67;;;2.28;;
38779;SDS011;29273;49.962;9.768;2024-02-16T04:16:36;2.88;;;2.40;;
38779;SDS011;29273;49.962;9.768;2024-02-16T04:19:02;2.60;;;2.17;;
38779;SDS011;29273;49.962;9.768;2024-02-16T04:21:28;4.55;;;2.90;;
38779;SDS011;29273;49.962;9.768;2024-02-16T04:23:53;2.88;;;2.47;;
38779;SDS011;29273;49.962;9.768;2024-02-16T04:26:19;2.67;;;2.13;;
38779;SDS011;29273;49.962;9.768;2024-02-16T04:28:44;2.65;;;2.20;;
38779;SDS011;29273;49.962;9.768;2024-02-16T04:31:10;2.38;;;2.15;;
38779;SDS011;29273;49.962;9.768;2024-02-16T04:33:35;2.35;;;2.13;;
38779;SDS011;29273;49.962;9.768;2024-02-16T04:36:01;2.63;;;2.13;;
38779;SDS011;29273;49.962;9.768;2024-02-16T04:38:26;2.90;;;2.13;;
38779;SDS011;29273;49.962;9.768;2024-02-16T04:40:51;2.70;;;2.40;;
38779;SDS011;29273;49.962;9.768;2024-02-16T04:43:17;3.22;;;2.25;;
38779;SDS011;29273;49.962;9.768;2024-02-16T04:45:42;3.03;;;2.20;;
38779;SDS011;29273;49.962;9.768;2024-02-16T04:48:08;4.45;;;2.90;;
38779;SDS011;29273;49.962;9.768;2024-02-16T04:50:34;3.40;;;2.35;;
38779;SDS011;29273;49.962;9.768;2024-02-16T04:53:00;2.58;;;1.98;;
38779;SDS011;29273;49.962;9.768;2024-02-16T04:55:29;3.33;;;2.30;;
38779;SDS011;29273;49.962;9.768;2024-02-16T04:57:56;3.75;;;2.50;;
38779;SDS011;29273;49.962;9.768;2024-02-16T05:00:21;2.92;;;2.38;;
38779;SDS011;29273;49.962;9.768;2024-02-16T05:02:48;4.22;;;2.72;;
38779;SDS011;29273;49.962;9.768;2024-02-16T05:05:13;3.35;;;2.70;;
38779;SDS011;29273;49.962;9.768;2024-02-16T05:07:42;3.90;;;2.75;;
38779;SDS011;29273;49.962;9.768;2024-02-16T05:10:08;4.57;;;2.80;;
38779;SDS011;29273;49.962;9.768;2024-02-16T05:12:34;3.33;;;2.85;;
38779;SDS011;29273;49.962;9.768;2024-02-16T05:15:00;3.97;;;2.85;;
38779;SDS011;29273;49.962;9.768;2024-02-16T05:17:25;4.78;;;2.72;;
38779;SDS011;29273;49.962;9.768;2024-02-16T05:19:51;4.15;;;3.20;;
38779;SDS011;29273;49.962;9.768;2024-02-16T05:22:19;3.20;;;2.70;;
38779;SDS011;29273;49.962;9.768;2024-02-16T05:24:46;4.78;;;2.85;;
38779;SDS011;29273;49.962;9.768;2024-02-16T05:27:12;3.63;;;2.80;;
38779;SDS011;29273;49.962;9.768;2024-02-16T05:29:39;3.67;;;3.00;;
38779;SDS011;29273;49.962;9.768;2024-02-16T05:32:07;3.85;;;3.10;;
38779;SDS011;29273;49.962;9.768;2024-02-16T05:34:32;3.15;;;2.60;;
38779;SDS011;29273;49.962;9.768;2024-02-16T05:37:05;3.15;;;2.50;;
38779;SDS011;29273;49.962;9.768;2024-02-16T05:39:36;3.88;;;2.90;;
38779;SDS011;29273;49.962;9.768;2024-02-16T05:42:18;3.20;;;2.28;;
38779;SDS011;29273;49.962;9.768;2024-02-16T05:44:43;3.65;;;2.60;;
38779;SDS011;29273;49.962;9.768;2024-02-16T05:47:09;2.83;;;2.30;;
38779;SDS011;29273;49.962;9.768;2024-02-16T05:49:34;2.40;;;2.20;;
38779;SDS011;29273;49.962;9.768;2024-02-16T05:52:00;3.40;;;2.38;;
38779;SDS011;29273;49.962;9.768;2024-02-16T05:57:08;3.10;;;2.00;;
38779;SDS011;29273;49.962;9.768;2024-02-16T05:59:34;4.32;;;2.58;;
38779;SDS011;29273;49.962;9.768;2024-02-16T06:02:00;3.10;;;2.28;;
38779;SDS011;29273;49.962;9.768;2024-02-16T06:04:25;2.63;;;2.20;;
38779;SDS011;29273;49.962;9.768;2024-02-16T06:06:51;2.70;;;2.17;;
38779;SDS011;29273;49.962;9.768;2024-02-16T06:09:19;2.60;;;2.38;;
38779;SDS011;29273;49.962;9.768;2024-02-16T06:11:44;3.40;;;2.70;;
38779;SDS011;29273;49.962;9.768;2024-02-16T06:14:10;3.15;;;2.28;;
38779;SDS011;29273;49.962;9.768;2024-02-16T06:16:35;2.88;;;2.40;;
38779;SDS011;29273;49.962;9.768;2024-02-16T06:19:01;3.78;;;2.50;;
38779;SDS011;29273;49.962;9.768;2024-02-16T06:21:26;3.30;;;2.60;;
38779;SDS011;29273;49.962;9.768;2024-02-16T06:23:52;5.13;;;3.03;;
38779;SDS011;29273;49.962;9.768;2024-02-16T06:26:17;3.90;;;2.70;;
38779;SDS011;29273;49.962;9.768;2024-02-16T06:28:43;2.83;;;2.53;;
38779;SDS011;29273;49.962;9.768;2024-02-16T06:31:08;4.07;;;3.10;;
38779;SDS011;29273;49.962;9.768;2024-02-16T06:33:34;3.10;;;2.60;;
38779;SDS011;29273;49.962;9.768;2024-02-16T06:35:59;3.65;;;2.80;;
38779;SDS011;29273;49.962;9.768;2024-02-16T06:38:24;3.72;;;2.78;;
38779;SDS011;29273;49.962;9.768;2024-02-16T06:40:50;5.35;;;2.97;;
38779;SDS011;29273;49.962;9.768;2024-02-16T06:43:16;4.45;;;3.17;;
38779;SDS011;29273;49.962;9.768;2024-02-16T06:45:41;3.78;;;2.63;;
38779;SDS011;29273;49.962;9.768;2024-02-16T06:48:06;4.60;;;3.08;;
38779;SDS011;29273;49.962;9.768;2024-02-16T06:50:32;4.20;;;2.95;;
38779;SDS011;29273;49.962;9.768;2024-02-16T06:52:57;3.80;;;3.00;;
38779;SDS011;29273;49.962;9.768;2024-02-16T06:55:23;4.50;;;3.10;;
38779;SDS011;29273;49.962;9.768;2024-02-16T06:57:48;3.95;;;2.63;;
38779;SDS011;29273;49.962;9.768;2024-02-16T07:00:15;3.42;;;2.80;;
38779;SDS011;29273;49.962;9.768;2024-02-16T07:02:42;4.35;;;2.60;;
38779;SDS011;29273;49.962;9.768;2024-02-16T07:05:07;4.05;;;3.20;;
38779;SDS011;29273;49.962;9.768;2024-02-16T07:07:33;3.95;;;2.90;;
38779;SDS011;29273;49.962;9.768;2024-02-16T07:10:01;4.35;;;3.15;;
38779;SDS011;29273;49.962;9.768;2024-02-16T07:12:27;3.00;;;2.53;;
38779;SDS011;29273;49.962;9.768;2024-02-16T07:14:53;4.22;;;2.90;;
38779;SDS011;29273;49.962;9.768;2024-02-16T07:17:19;4.93;;;2.55;;
38779;SDS011;29273;49.962;9.768;2024-02-16T07:19:45;3.55;;;2.70;;
38779;SDS011;29273;49.962;9.768;2024-02-16T07:22:10;4.47;;;2.45;;
38779;SDS011;29273;49.962;9.768;2024-02-16T07:24:37;3.10;;;2.58;;
38779;SDS011;29273;49.962;9.768;2024-02-16T07:27:03;3.42;;;2.63;;
38779;SDS011;29273;49.962;9.768;2024-02-16T07:29:29;3.95;;;3.20;;
38779;SDS011;29273;49.962;9.768;2024-02-16T07:31:54;3.78;;;2.80;;
38779;SDS011;29273;49.962;9.768;2024-02-16T07:34:21;4.22;;;3.00;;
38779;SDS011;29273;49.962;9.768;2024-02-16T07:36:46;3.25;;;2.83;;
38779;SDS011;29273;49.962;9.768;2024-02-16T07:39:12;4.55;;;3.33;;
38779;SDS011;29273;49.962;9.768;2024-02-16T07:41:38;4.22;;;3.15;;
38779;SDS011;29273;49.962;9.768;2024-02-16T07:44:04;3.47;;;2.92;;
38779;SDS011;29273;49.962;9.768;2024-02-16T07:46:29;3.25;;;2.67;;
38779;SDS011;29273;49.962;9.768;2024-02-16T07:48:55;4.05;;;3.17;;
38779;SDS011;29273;49.962;9.768;2024-02-16T07:51:20;4.47;;;3.15;;
38779;SDS011;29273;49.962;9.768;2024-02-16T07:53:46;3.72;;;2.90;;
38779;SDS011;29273;49.962;9.768;2024-02-16T07:56:12;3.35;;;2.72;;
38779;SDS011;29273;49.962;9.768;2024-02-16T07:58:38;4.22;;;3.17;;
38779;SDS011;29273;49.962;9.768;2024-02-16T08:01:07;4.40;;;3.45;;
38779;SDS011;29273;49.962;9.768;2024-02-16T08:03:32;4.30;;;3.03;;
38779;SDS011;29273;49.962;9.768;2024-02-16T08:05:58;3.97;;;3.15;;
38779;SDS011;29273;49.962;9.768;2024-02-16T08:08:24;4.07;;;3.35;;
38779;SDS011;29273;49.962;9.768;2024-02-16T08:10:50;4.70;;;3.50;;
38779;SDS011;29273;49.962;9.768;2024-02-16T08:13:16;4.47;;;3.53;;
38779;SDS011;29273;49.962;9.768;2024-02-16T08:15:43;4.25;;;3.67;;
38779;SDS011;29273;49.962;9.768;2024-02-16T08:18:09;3.97;;;3.35;;
38779;SDS011;29273;49.962;9.768;2024-02-16T08:20:36;4.13;;;3.72;;
38779;SDS011;29273;49.962;9.768;2024-02-16T08:23:02;5.28;;;3.75;;
38779;SDS011;29273;49.962;9.768;2024-02-16T08:25:28;4.82;;;3.75;;
38779;SDS011;29273;49.962;9.768;2024-02-16T08:27:55;5.45;;;3.83;;
38779;SDS011;29273;49.962;9.768;2024-02-16T08:30:21;3.97;;;3.53;;
38779;SDS011;29273;49.962;9.768;2024-02-16T08:32:47;4.53;;;3.95;;
38779;SDS011;29273;49.962;9.768;2024-02-16T08:35:13;4.55;;;3.50;;
38779;SDS011;29273;49.962;9.768;2024-02-16T08:37:39;4.88;;;3.85;;
38779;SDS011;29273;49.962;9.768;2024-02-16T08:40:05;4.72;;;3.45;;
38779;SDS011;29273;49.962;9.768;2024-02-16T08:42:31;4.68;;;3.55;;
38779;SDS011;29273;49.962;9.768;2024-02-16T08:44:57;5.07;;;3.58;;
38779;SDS011;29273;49.962;9.768;2024-02-16T08:47:25;4.43;;;3.50;;
38779;SDS011;29273;49.962;9.768;2024-02-16T08:49:51;4.47;;;3.20;;
38779;SDS011;29273;49.962;9.768;2024-02-16T08:52:17;4.47;;;3.17;;
38779;SDS011;29273;49.962;9.768;2024-02-16T08:54:43;5.05;;;3.25;;
38779;SDS011;29273;49.962;9.768;2024-02-16T08:57:09;4.47;;;3.22;;
38779;SDS011;29273;49.962;9.768;2024-02-16T08:59:35;3.95;;;3.08;;
38779;SDS011;29273;49.962;9.768;2024-02-16T09:02:00;4.10;;;3.35;;
38779;SDS011;29273;49.962;9.768;2024-02-16T09:04:26;5.18;;;2.88;;
38779;SDS011;29273;49.962;9.768;2024-02-16T09:06:51;3.95;;;2.90;;
38779;SDS011;29273;49.962;9.768;2024-02-16T09:09:17;3.88;;;3.10;;
38779;SDS011;29273;49.962;9.768;2024-02-16T09:11:42;3.35;;;2.95;;
38779;SDS011;29273;49.962;9.768;2024-02-16T09:14:08;5.85;;;2.92;;
38779;SDS011;29273;49.962;9.768;2024-02-16T09:16:33;4.07;;;2.90;;
38779;SDS011;29273;49.962;9.768;2024-02-16T09:18:59;4.22;;;3.08;;
38779;SDS011;29273;49.962;9.768;2024-02-16T09:21:24;3.53;;;2.97;;
38779;SDS011;29273;49.962;9.768;2024-02-16T09:23:52;3.33;;;2.65;;
38779;SDS011;29273;49.962;9.768;2024-02-16T09:26:18;3.90;;;2.75;;
38779;SDS011;29273;49.962;9.768;2024-02-16T09:28:43;3.78;;;2.90;;
38779;SDS011;29273;49.962;9.768;2024-02-16T09:31:14;3.42;;;2.55;;
38779;SDS011;29273;49.962;9.768;2024-02-16T09:33:39;2.97;;;2.50;;
38779;SDS011;29273;49.962;9.768;2024-02-16T09:36:06;3.17;;;2.88;;
38779;SDS011;29273;49.962;9.768;2024-02-16T09:38:31;4.22;;;3.05;;
38779;SDS011;29273;49.962;9.768;2024-02-16T09:40:57;3.38;;;2.72;;
38779;SDS011;29273;49.962;9.768;2024-02-16T09:43:26;4.25;;;2.70;;
38779;SDS011;29273;49.962;9.768;2024-02-16T09:45:53;3.33;;;2.78;;
38779;SDS011;29273;49.962;9.768;2024-02-16T09:48:20;3.47;;;2.47;;
38779;SDS011;29273;49.962;9.768;2024-02-16T09:50:46;4.93;;;3.00;;
38779;SDS011;29273;49.962;9.768;2024-02-16T09:53:13;3.90;;;2.90;;
38779;SDS011;29273;49.962;9.768;2024-02-16T09:55:39;3.25;;;2.88;;
38779;SDS011;29273;49.962;9.768;2024-02-16T09:58:04;3.65;;;3.25;;
38779;SDS011;29273;49.962;9.768;2024-02-16T10:00:30;3.78;;;3.20;;
38779;SDS011;29273;49.962;9.768;2024-02-16T10:02:55;6.97;;;3.70;;
38779;SDS011;29273;49.962;9.768;2024-02-16T10:05:21;5.05;;;3.53;;
38779;SDS011;29273;49.962;9.768;2024-02-16T10:07:47;5.07;;;3.63;;
38779;SDS011;29273;49.962;9.768;2024-02-16T10:10:22;4.28;;;3.58;;
38779;SDS011;29273;49.962;9.768;2024-02-16T10:12:49;3.75;;;3.20;;
38779;SDS011;29273;49.962;9.768;2024-02-16T10:15:20;4.38;;;3.72;;
38779;SDS011;29273;49.962;9.768;2024-02-16T10:17:59;5.75;;;3.63;;
38779;SDS011;29273;49.962;9.768;2024-02-16T10:20:29;3.63;;;3.33;;
38779;SDS011;29273;49.962;9.768;2024-02-16T10:25:33;3.95;;;3.30;;
38779;SDS011;29273;49.962;9.768;2024-02-16T10:28:00;4.18;;;3.45;;
38779;SDS011;29273;49.962;9.768;2024-02-16T10:30:30;4.35;;;3.40;;
38779;SDS011;29273;49.962;9.768;2024-02-16T10:33:00;3.60;;;3.17;;
38779;SDS011;29273;49.962;9.768;2024-02-16T10:35:27;4.65;;;3.30;;
38779;SDS011;29273;49.962;9.768;2024-02-16T10:37:54;4.15;;;2.88;;
38779;SDS011;29273;49.962;9.768;2024-02-16T10:40:22;3.65;;;2.97;;
38779;SDS011;29273;49.962;9.768;2024-02-16T10:42:51;4.50;;;3.80;;
38779;SDS011;29273;49.962;9.768;2024-02-16T10:45:17;4.15;;;3.75;;
38779;SDS011;29273;49.962;9.768;2024-02-16T10:47:44;4.05;;;3.33;;
38779;SDS011;29273;49.962;9.768;2024-02-16T10:50:09;3.92;;;3.38;;
38779;SDS011;29273;49.962;9.768;2024-02-16T10:52:36;3.47;;;3.03;;
38779;SDS011;29273;49.962;9.768;2024-02-16T10:55:04;3.40;;;3.10;;
38779;SDS011;29273;49.962;9.768;2024-02-16T10:57:31;5.47;;;3.35;;
38779;SDS011;29273;49.962;9.768;2024-02-16T10:59:58;4.43;;;3.30;;
38779;SDS011;29273;49.962;9.768;2024-02-16T11:02:24;5.00;;;3.08;;
38779;SDS011;29273;49.962;9.768;2024-02-16T11:04:51;4.38;;;3.10;;
38779;SDS011;29273;49.962;9.768;2024-02-16T11:07:17;4.72;;;3.40;;
38779;SDS011;29273;49.962;9.768;2024-02-16T11:09:45;3.97;;;3.35;;
38779;SDS011;29273;49.962;9.768;2024-02-16T11:12:14;3.75;;;3.10;;
38779;SDS011;29273;49.962;9.768;2024-02-16T11:17:20;3.30;;;2.95;;
38779;SDS011;29273;49.962;9.768;2024-02-16T11:19:47;4.03;;;3.47;;
38779;SDS011;29273;49.962;9.768;2024-02-16T11:22:17;4.53;;;3.35;;
38779;SDS011;29273;49.962;9.768;2024-02-16T11:24:44;3.97;;;3.00;;
38779;SDS011;29273;49.962;9.768;2024-02-16T11:27:10;4.20;;;3.22;;
38779;SDS011;29273;49.962;9.768;2024-02-16T11:29:37;3.10;;;2.80;;
38779;SDS011;29273;49.962;9.768;2024-02-16T11:32:07;3.40;;;2.80;;
38779;SDS011;29273;49.962;9.768;2024-02-16T11:34:33;3.25;;;2.58;;
38779;SDS011;29273;49.962;9.768;2024-02-16T11:36:59;3.75;;;2.58;;
38779;SDS011;29273;49.962;9.768;2024-02-16T11:39:26;3.90;;;2.35;;
38779;SDS011;29273;49.962;9.768;2024-02-16T11:42:06;2.85;;;2.33;;
38779;SDS011;29273;49.962;9.768;2024-02-16T11:44:36;2.72;;;2.20;;
38779;SDS011;29273;49.962;9.768;2024-02-16T11:47:05;2.53;;;1.83;;
38779;SDS011;29273;49.962;9.768;2024-02-16T11:49:40;2.20;;;2.00;;
38779;SDS011;29273;49.962;9.768;2024-02-16T11:52:06;3.17;;;2.05;;
38779;SDS011;29273;49.962;9.768;2024-02-16T11:54:32;3.58;;;2.20;;
38779;SDS011;29273;49.962;9.768;2024-02-16T11:56:57;2.13;;;1.83;;
38779;SDS011;29273;49.962;9.768;2024-02-16T11:59:23;2.80;;;1.98;;
38779;SDS011;29273;49.962;9.768;2024-02-16T12:01:52;2.42;;;1.98;;
38779;SDS011;29273;49.962;9.768;2024-02-16T12:04:26;1.63;;;1.42;;
38779;SDS011;29273;49.962;9.768;2024-02-16T12:06:56;1.98;;;1.38;;
38779;SDS011;29273;49.962;9.768;2024-02-16T12:09:23;1.75;;;1.65;;
38779;SDS011;29273;49.962;9.768;2024-02-16T12:11:50;2.05;;;1.55;;
38779;SDS011;29273;49.962;9.768;2024-02-16T12:14:17;2.28;;;1.55;;
38779;SDS011;29273;49.962;9.768;2024-02-16T12:16:47;2.13;;;1.60;;
38779;SDS011;29273;49.962;9.768;2024-02-16T12:19:19;2.42;;;1.85;;
38779;SDS011;29273;49.962;9.768;2024-02-16T12:21:48;2.60;;;1.63;;
38779;SDS011;29273;49.962;9.768;2024-02-16T12:24:16;1.88;;;1.27;;
38779;SDS011;29273;49.962;9.768;2024-02-16T12:26:42;2.28;;;1.50;;
38779;SDS011;29273;49.962;9.768;2024-02-16T12:29:07;1.75;;;1.30;;
38779;SDS011;29273;49.962;9.768;2024-02-16T12:31:37;1.75;;;1.40;;
38779;SDS011;29273;49.962;9.768;2024-02-16T12:34:07;2.20;;;1.13;;
38779;SDS011;29273;49.962;9.768;2024-02-16T12:36:33;1.65;;;1.27;;
38779;SDS011;29273;49.962;9.768;2024-02-16T12:39:00;1.58;;;1.25;;
38779;SDS011;29273;49.962;9.768;2024-02-16T12:41:25;1.42;;;1.20;;
38779;SDS011;29273;49.962;9.768;2024-02-16T12:43:51;1.55;;;1.10;;
38779;SDS011;29273;49.962;9.768;2024-02-16T12:46:17;1.15;;;1.05;;
38779;SDS011;29273;49.962;9.768;2024-02-16T12:48:44;2.72;;;1.33;;
38779;SDS011;29273;49.962;9.768;2024-02-16T12:51:10;1.60;;;1.40;;
38779;SDS011;29273;49.962;9.768;2024-02-16T12:53:36;1.75;;;1.30;;
38779;SDS011;29273;49.962;9.768;2024-02-16T12:56:06;2.15;;;1.70;;
38779;SDS011;29273;49.962;9.768;2024-02-16T12:58:38;3.00;;;1.60;;
38779;SDS011;29273;49.962;9.768;2024-02-16T13:01:04;1.90;;;1.27;;
38779;SDS011;29273;49.962;9.768;2024-02-16T13:03:37;1.30;;;1.15;;
38779;SDS011;29273;49.962;9.768;2024-02-16T13:06:04;3.10;;;1.30;;
38779;SDS011;29273;49.962;9.768;2024-02-16T13:08:30;1.83;;;1.20;;
38779;SDS011;29273;49.962;9.768;2024-02-16T13:10:56;1.38;;;1.05;;
38779;SDS011;29273;49.962;9.768;2024-02-16T13:13:23;1.15;;;0.90;;
38779;SDS011;29273;49.962;9.768;2024-02-16T13:15:49;1.15;;;0.80;;
38779;SDS011;29273;49.962;9.768;2024-02-16T13:18:15;2.20;;;1.20;;
38779;SDS011;29273;49.962;9.768;2024-02-16T13:20:41;1.38;;;1.02;;
38779;SDS011;29273;49.962;9.768;2024-02-16T13:23:08;1.70;;;1.25;;
38779;SDS011;29273;49.962;9.768;2024-02-16T13:25:35;1.90;;;1.25;;
38779;SDS011;29273;49.962;9.768;2024-02-16T13:28:01;1.92;;;1.35;;
38779;SDS011;29273;49.962;9.768;2024-02-16T13:30:26;2.13;;;1.65;;
38779;SDS011;29273;49.962;9.768;2024-02-16T13:32:53;2.20;;;1.55;;
38779;SDS011;29273;49.962;9.768;2024-02-16T13:35:19;2.00;;;1.30;;
38779;SDS011;29273;49.962;9.768;2024-02-16T13:37:44;2.00;;;1.48;;
38779;SDS011;29273;49.962;9.768;2024-02-16T13:40:10;4.28;;;2.15;;
38779;SDS011;29273;49.962;9.768;2024-02-16T13:42:40;2.75;;;1.48;;
38779;SDS011;29273;49.962;9.768;2024-02-16T13:45:06;2.63;;;1.40;;
38779;SDS011;29273;49.962;9.768;2024-02-16T13:47:36;2.03;;;1.05;;
38779;SDS011;29273;49.962;9.768;2024-02-16T13:50:05;7.45;;;3.65;;
38779;SDS011;29273;49.962;9.768;2024-02-16T13:52:31;4.05;;;1.92;;
38779;SDS011;29273;49.962;9.768;2024-02-16T13:54:57;3.08;;;1.30;;
38779;SDS011;29273;49.962;9.768;2024-02-16T13:57:23;1.75;;;1.17;;
38779;SDS011;29273;49.962;9.768;2024-02-16T13:59:48;1.77;;;1.05;;
38779;SDS011;29273;49.962;9.768;2024-02-16T14:02:14;1.40;;;1.02;;
38779;SDS011;29273;49.962;9.768;2024-02-16T14:04:39;1.63;;;1.00;;
38779;SDS011;29273;49.962;9.768;2024-02-16T14:07:06;1.52;;;0.90;;
38779;SDS011;29273;49.962;9.768;2024-02-16T14:09:31;2.90;;;1.40;;
38779;SDS011;29273;49.962;9.768;2024-02-16T14:11:57;2.58;;;1.27;;
38779;SDS011;29273;49.962;9.768;2024-02-16T14:14:27;2.50;;;1.17;;
38779;SDS011;29273;49.962;9.768;2024-02-16T14:16:53;1.70;;;1.10;;
38779;SDS011;29273;49.962;9.768;2024-02-16T14:19:19;2.45;;;1.20;;
38779;SDS011;29273;49.962;9.768;2024-02-16T14:21:44;1.20;;;1.02;;
38779;SDS011;29273;49.962;9.768;2024-02-16T14:24:12;2.42;;;1.00;;
38779;SDS011;29273;49.962;9.768;2024-02-16T14:26:38;1.73;;;1.00;;
38779;SDS011;29273;49.962;9.768;2024-02-16T14:29:04;1.05;;;0.95;;
38779;SDS011;29273;49.962;9.768;2024-02-16T14:31:31;1.83;;;1.20;;
38779;SDS011;29273;49.962;9.768;2024-02-16T14:33:58;1.80;;;1.13;;
38779;SDS011;29273;49.962;9.768;2024-02-16T14:36:24;1.92;;;1.20;;
38779;SDS011;29273;49.962;9.768;2024-02-16T14:38:50;3.05;;;1.00;;
38779;SDS011;29273;49.962;9.768;2024-02-16T14:41:15;2.15;;;1.13;;
38779;SDS011;29273;49.962;9.768;2024-02-16T14:43:41;2.35;;;1.70;;
38779;SDS011;29273;49.962;9.768;2024-02-16T14:46:08;1.65;;;1.10;;
38779;SDS011;29273;49.962;9.768;2024-02-16T14:48:34;2.45;;;1.40;;
38779;SDS011;29273;49.962;9.768;2024-02-16T14:50:59;1.90;;;1.25;;